Tortugas, New Mexico
Current Conditions -  °F | °C
As of 11:35 PM on Tuesday 27 Jan 2015 (Local Time) from KLRU Reporting Station
Clear Clear  
Wind Chill: 44°   Ceiling: Unl
Heat Index: 48°   Visibility: 10mi
Dew Point: 41°   Wind: 8mph
Humidity: 78%   Direction: 290°WNW
Pressure: 30.24"   Gusts: NA
Location:  32.6621°N, 106.641°W
Report Text: KLRU 280635Z AUTO 29007KT 10SM CLR 09/05 A3024 RMK AO2 T00870050
Loading
Personal Weather Stations






























Interactive Weather Map New forecast layout! Learn more

10-Day Weather Forecast

Advertisements
Track Severe Weather on mobile